Time;durP1;ratioP1;P1;durP2;ratioP2;P2;SDS_P1;SDS_P2;PMS_P1;PMS_P2;Temp;Humidity;BMP_temperature;BMP_pressure;BME280_temperature;BME280_humidity;BME280_pressure;Samples;Min_cycle;Max_cycle;Signal;HPM_P1;HPM_P2
2022/04/01 00:01:29;;;;;;;7.15;2.60;;;1.20;99.90;;;;;;5051156;28;20468;-54
2022/04/01 00:03:54;;;;;;;6.90;3.40;;;1.10;99.90;;;;;;5050674;28;20501;-54
2022/04/01 00:06:20;;;;;;;4.32;2.53;;;1.20;99.90;;;;;;5050731;28;20045;-55
2022/04/01 00:08:45;;;;;;;11.40;3.20;;;1.20;99.90;;;;;;5051294;28;20041;-51
2022/04/01 00:11:11;;;;;;;7.50;3.22;;;1.10;99.90;;;;;;5050667;28;20040;-53
2022/04/01 00:13:37;;;;;;;5.82;3.38;;;1.10;99.90;;;;;;5050949;28;20067;-54
2022/04/01 00:16:03;;;;;;;5.60;2.85;;;1.20;99.90;;;;;;5050517;28;20409;-54
2022/04/01 00:18:29;;;;;;;4.45;2.28;;;1.20;99.90;;;;;;5050467;28;20148;-54
2022/04/01 00:20:54;;;;;;;7.13;3.10;;;1.10;99.90;;;;;;5050266;28;20112;-53
2022/04/01 00:23:20;;;;;;;6.35;3.45;;;1.20;99.90;;;;;;5050769;28;20500;-51
2022/04/01 00:25:45;;;;;;;6.43;3.20;;;1.10;99.90;;;;;;5050826;28;20063;-55
2022/04/01 00:28:11;;;;;;;6.13;2.70;;;1.10;99.90;;;;;;5050397;28;20429;-54
2022/04/01 00:30:39;;;;;;;6.63;2.95;;;1.20;99.90;;;;;;5033219;28;20045;-52
2022/04/01 00:33:05;;;;;;;5.90;3.20;;;1.20;99.90;;;;;;5043406;28;20455;-53
2022/04/01 00:35:32;;;;;;;5.63;3.03;;;1.10;99.90;;;;;;5051102;28;20590;-52
2022/04/01 00:37:58;;;;;;;4.97;2.60;;;1.00;99.90;;;;;;5032296;28;20469;-54
2022/04/01 00:40:23;;;;;;;6.05;2.80;;;1.00;99.90;;;;;;5052149;28;20116;-53
2022/04/01 00:42:49;;;;;;;7.93;3.03;;;1.00;99.90;;;;;;5054158;28;20116;-54
2022/04/01 00:45:16;;;;;;;6.20;3.28;;;1.00;99.90;;;;;;5049764;28;20048;-53
2022/04/01 00:47:42;;;;;;;10.98;2.90;;;1.10;99.90;;;;;;5049576;28;20045;-51
2022/04/01 00:50:08;;;;;;;7.93;2.55;;;1.10;99.90;;;;;;5054181;28;20048;-55
2022/04/01 00:52:35;;;;;;;3.88;2.20;;;1.10;99.90;;;;;;5053204;28;20036;-53
2022/04/01 00:55:01;;;;;;;4.32;1.90;;;1.10;99.90;;;;;;5042035;28;20033;-53
2022/04/01 00:57:27;;;;;;;5.63;2.50;;;1.10;99.90;;;;;;5052899;28;20443;-49
2022/04/01 00:59:54;;;;;;;4.25;2.33;;;1.00;99.90;;;;;;5054157;28;20354;-51
2022/04/01 01:02:20;;;;;;;5.95;2.42;;;1.00;99.90;;;;;;5053144;28;20711;-52
2022/04/01 01:04:46;;;;;;;5.68;1.88;;;0.90;99.90;;;;;;5053826;28;20041;-53
2022/04/01 01:07:13;;;;;;;6.20;2.40;;;1.10;99.90;;;;;;5053856;28;20056;-53
2022/04/01 01:09:38;;;;;;;5.60;2.40;;;1.10;99.90;;;;;;5053580;28;20045;-50
2022/04/01 01:12:07;;;;;;;5.20;2.53;;;1.00;99.90;;;;;;5053715;28;20455;-53
2022/04/01 01:14:36;;;;;;;7.43;1.98;;;1.00;99.90;;;;;;5053642;28;20382;-53
2022/04/01 01:17:04;;;;;;;6.15;2.20;;;1.00;99.90;;;;;;5053505;28;20041;-51
2022/04/01 01:19:30;;;;;;;5.13;2.00;;;1.00;99.90;;;;;;5094995;22;20044;-52
2022/04/01 01:21:56;;;;;;;5.03;2.03;;;1.00;99.90;;;;;;5075506;28;20046;-53
2022/04/01 01:24:31;;;;;;;3.72;1.92;;;1.00;99.90;;;;;;5094279;28;20407;-53
2022/04/01 01:26:58;;;;;;;7.03;2.10;;;1.00;99.90;;;;;;5093556;28;20118;-50
2022/04/01 01:29:27;;;;;;;3.03;1.85;;;1.00;99.90;;;;;;5093262;28;20479;-50
2022/04/01 01:31:54;;;;;;;3.53;1.90;;;1.10;99.90;;;;;;5093726;28;20051;-52
2022/04/01 01:34:21;;;;;;;5.22;2.25;;;0.90;99.90;;;;;;5093312;28;20492;-51
2022/04/01 01:36:47;;;;;;;5.50;2.10;;;0.90;99.90;;;;;;5092928;28;20032;-52
2022/04/01 01:39:13;;;;;;;3.63;1.67;;;0.90;99.90;;;;;;5093595;28;20380;-56
2022/04/01 01:41:39;;;;;;;3.88;1.90;;;1.00;99.90;;;;;;5074913;28;20044;-55
2022/04/01 01:44:07;;;;;;;4.25;2.20;;;1.00;99.90;;;;;;5092901;28;20071;-51
2022/04/01 01:46:34;;;;;;;4.35;1.58;;;0.90;99.90;;;;;;5092881;28;20032;-53
2022/04/01 01:49:00;;;;;;;4.95;1.92;;;1.00;99.90;;;;;;5093255;28;20048;-54
2022/04/01 01:56:54;;;;;;;4.60;2.03;;;0.90;99.90;;;;;;5093055;28;20043;-52
2022/04/01 01:59:19;;;;;;;5.80;2.92;;;0.90;99.90;;;;;;5091300;28;20036;-56
2022/04/01 02:01:45;;;;;;;4.10;2.45;;;0.90;99.90;;;;;;5081228;28;20051;-51
2022/04/01 02:04:11;;;;;;;4.10;1.98;;;1.00;99.90;;;;;;5093071;28;20044;-51
2022/04/01 02:06:38;;;;;;;5.50;2.28;;;0.90;99.90;;;;;;5092742;28;20534;-53
2022/04/01 02:09:03;;;;;;;5.70;2.78;;;0.90;99.90;;;;;;5092864;28;20089;-51
2022/04/01 02:11:30;;;;;;;4.40;2.45;;;0.80;99.90;;;;;;5092501;28;20052;-50
2022/04/01 02:13:55;;;;;;;4.50;1.90;;;0.90;99.90;;;;;;5074315;28;20052;-52
2022/04/01 02:16:21;;;;;;;6.38;2.42;;;0.80;99.90;;;;;;5092004;28;20205;-50
2022/04/01 02:18:49;;;;;;;5.10;2.47;;;1.00;99.90;;;;;;5092505;28;20047;-53
2022/04/01 02:21:15;;;;;;;4.53;2.17;;;0.90;99.90;;;;;;5092959;28;20032;-51
2022/04/01 02:23:43;;;;;;;6.85;2.33;;;1.00;99.90;;;;;;5092563;28;20567;-52
2022/04/01 02:26:09;;;;;;;5.35;2.17;;;1.00;99.90;;;;;;5091950;28;20411;-53
2022/04/01 02:28:36;;;;;;;4.55;2.13;;;0.90;99.90;;;;;;5092333;28;20036;-52
2022/04/01 02:31:01;;;;;;;3.85;2.20;;;1.00;99.90;;;;;;5092232;28;20051;-50
2022/04/01 02:33:27;;;;;;;5.25;2.78;;;1.00;99.90;;;;;;5092347;28;20028;-50
2022/04/01 02:35:57;;;;;;;5.38;2.70;;;1.00;99.90;;;;;;5092247;28;20126;-51
2022/04/01 02:38:27;;;;;;;6.88;2.22;;;1.00;99.90;;;;;;5091519;28;20519;-52
2022/04/01 02:40:53;;;;;;;7.40;2.38;;;1.10;99.90;;;;;;5092131;28;20040;-50
2022/04/01 02:43:20;;;;;;;4.38;2.15;;;1.10;99.90;;;;;;5074120;28;20044;-52
2022/04/01 02:45:48;;;;;;;4.63;2.58;;;1.10;99.90;;;;;;5074084;28;20032;-51
2022/04/01 02:48:15;;;;;;;4.20;2.25;;;1.00;99.90;;;;;;5092012;28;20036;-51
2022/04/01 02:50:40;;;;;;;8.70;3.20;;;1.00;99.90;;;;;;5091920;28;20042;-51
2022/04/01 02:53:06;;;;;;;4.88;2.22;;;1.00;99.90;;;;;;5091762;28;20546;-51
2022/04/01 02:55:32;;;;;;;4.95;2.25;;;0.90;99.90;;;;;;5091807;28;20458;-50
2022/04/01 02:57:59;;;;;;;5.82;2.78;;;1.00;99.90;;;;;;5073318;28;20480;-53
2022/04/01 03:00:24;;;;;;;4.97;2.60;;;0.90;99.90;;;;;;5092012;28;20098;-51
2022/04/01 03:02:50;;;;;;;6.75;3.72;;;1.00;99.90;;;;;;5091231;28;20040;-52
2022/04/01 03:05:17;;;;;;;7.80;2.60;;;1.00;99.90;;;;;;5073757;28;20051;-53
2022/04/01 03:07:46;;;;;;;9.02;2.25;;;1.00;99.90;;;;;;5091361;28;20075;-53
2022/04/01 03:10:11;;;;;;;5.43;2.55;;;1.10;99.90;;;;;;5069250;28;20047;-53
2022/04/01 03:12:37;;;;;;;5.90;2.53;;;1.00;99.90;;;;;;5075240;28;20044;-51
2022/04/01 03:15:04;;;;;;;4.65;2.70;;;1.10;99.90;;;;;;5071623;28;20045;-52
2022/04/01 03:17:31;;;;;;;4.95;2.50;;;1.00;99.90;;;;;;5071207;28;20067;-54
2022/04/01 03:19:59;;;;;;;7.78;2.13;;;1.00;99.90;;;;;;5063203;28;20046;-55
2022/04/01 03:22:25;;;;;;;4.97;2.38;;;1.00;99.90;;;;;;5073974;28;20043;-53
2022/04/01 03:24:51;;;;;;;4.82;2.40;;;1.00;99.90;;;;;;5091335;28;20411;-55
2022/04/01 03:27:16;;;;;;;5.45;2.35;;;0.90;99.90;;;;;;5072906;28;20407;-54
2022/04/01 03:29:42;;;;;;;4.80;2.33;;;1.00;99.90;;;;;;5091400;28;20040;-55
2022/04/01 03:32:09;;;;;;;4.28;2.10;;;0.90;99.90;;;;;;5091639;28;20032;-54
2022/04/01 03:34:36;;;;;;;9.02;2.45;;;0.90;99.90;;;;;;5091416;28;20055;-51
2022/04/01 03:37:02;;;;;;;6.50;2.50;;;0.90;99.90;;;;;;5091256;28;20040;-53
2022/04/01 03:39:28;;;;;;;6.32;2.42;;;1.00;99.90;;;;;;5091148;28;20516;-54
2022/04/01 03:41:54;;;;;;;3.80;2.13;;;1.00;99.90;;;;;;5090924;28;20036;-51
2022/04/01 03:44:24;;;;;;;3.83;1.98;;;1.00;99.90;;;;;;5091553;28;20520;-53
2022/04/01 03:47:05;;;;;;;5.90;2.20;;;0.90;99.90;;;;;;5091257;28;20040;-54
2022/04/01 03:49:33;;;;;;;4.15;2.40;;;0.90;99.90;;;;;;5071658;28;20045;-52
2022/04/01 03:51:59;;;;;;;5.78;2.40;;;0.90;99.90;;;;;;5081125;28;20174;-51
2022/04/01 03:54:25;;;;;;;4.75;2.30;;;0.90;99.90;;;;;;5083110;28;20040;-52
2022/04/01 03:56:58;;;;;;;5.13;2.47;;;1.00;99.90;;;;;;5088880;28;20028;-53
2022/04/01 03:59:26;;;;;;;5.22;2.13;;;0.90;99.90;;;;;;5084124;28;20476;-52
2022/04/01 04:01:53;;;;;;;5.78;2.60;;;1.10;99.90;;;;;;5087313;28;20461;-53
2022/04/01 04:04:20;;;;;;;6.53;2.33;;;1.10;99.90;;;;;;5090889;28;20050;-53
2022/04/01 04:06:47;;;;;;;4.95;2.13;;;1.10;99.90;;;;;;5085589;28;20039;-51
2022/04/01 04:09:14;;;;;;;6.88;2.08;;;1.10;99.90;;;;;;5091318;28;20403;-53
2022/04/01 04:11:40;;;;;;;5.15;1.60;;;1.00;99.90;;;;;;5071230;28;20547;-52
2022/04/01 04:14:06;;;;;;;5.28;1.90;;;1.20;99.90;;;;;;5091880;28;20130;-52
2022/04/01 04:16:44;;;;;;;3.38;1.83;;;1.20;99.90;;;;;;5091844;28;20036;-51
2022/04/01 04:19:19;;;;;;;3.17;1.70;;;1.20;99.90;;;;;;5082675;28;20086;-55
2022/04/01 04:21:55;;;;;;;6.57;2.35;;;1.20;99.90;;;;;;5093674;28;20052;-54
2022/04/01 04:24:36;;;;;;;5.47;1.90;;;1.30;99.90;;;;;;5095038;28;20115;-54
2022/04/01 04:27:13;;;;;;;3.83;1.73;;;1.20;99.90;;;;;;5094567;28;20044;-52
2022/04/01 04:29:49;;;;;;;6.18;2.10;;;1.20;99.90;;;;;;5094610;28;20036;-51
2022/04/01 04:32:54;;;;;;;4.22;1.75;;;1.20;99.90;;;;;;5094776;28;20040;-54
2022/04/01 04:35:21;;;;;;;5.07;2.40;;;1.30;99.90;;;;;;5062978;28;20071;-52
2022/04/01 04:37:47;;;;;;;2.97;1.60;;;1.30;99.90;;;;;;5075848;28;20036;-53
2022/04/01 04:40:17;;;;;;;7.35;2.50;;;1.40;99.90;;;;;;5094440;28;20036;-54
2022/04/01 04:42:45;;;;;;;5.47;2.03;;;1.30;99.90;;;;;;5094547;28;20036;-54
2022/04/01 04:45:12;;;;;;;5.22;2.05;;;1.50;99.90;;;;;;5094639;28;20032;-55
2022/04/01 04:47:40;;;;;;;6.30;2.13;;;1.40;99.90;;;;;;5090556;28;20032;-54
2022/04/01 04:50:07;;;;;;;6.60;2.20;;;1.50;99.90;;;;;;5093909;28;20075;-52
2022/04/01 04:52:34;;;;;;;3.20;1.98;;;1.60;99.90;;;;;;5093837;28;20064;-55
2022/04/01 04:55:06;;;;;;;5.30;2.00;;;1.60;99.90;;;;;;5094124;28;20590;-51
2022/04/01 04:57:33;;;;;;;4.60;2.33;;;1.60;99.90;;;;;;5094293;28;20384;-53
2022/04/01 05:00:00;;;;;;;9.93;2.35;;;1.60;99.90;;;;;;5094298;28;20081;-54
2022/04/01 05:02:46;;;;;;;11.18;2.58;;;1.60;99.90;;;;;;5093978;28;20044;-54
2022/04/01 05:05:27;;;;;;;4.82;1.90;;;1.60;99.90;;;;;;5093887;28;20055;-54
2022/04/01 05:08:01;;;;;;;6.75;1.88;;;1.50;99.90;;;;;;5090426;28;20441;-51
2022/04/01 05:10:31;;;;;;;3.65;1.90;;;1.60;99.90;;;;;;5089299;28;20067;-51
2022/04/01 05:13:03;;;;;;;3.53;1.40;;;1.60;99.90;;;;;;5093905;28;20044;-51
2022/04/01 05:15:36;;;;;;;3.95;1.90;;;1.70;99.90;;;;;;5094167;28;20078;-51
2022/04/01 05:18:16;;;;;;;3.47;1.70;;;1.70;99.90;;;;;;5074101;28;20044;-54
2022/04/01 05:20:55;;;;;;;5.65;2.03;;;1.70;99.90;;;;;;5093023;28;20540;-56
2022/04/01 05:23:34;;;;;;;3.20;1.42;;;1.90;99.90;;;;;;5090799;28;20028;-52
2022/04/01 05:26:12;;;;;;;6.20;2.22;;;1.80;99.90;;;;;;5092594;28;20067;-54
2022/04/01 05:29:00;;;;;;;5.20;2.30;;;1.70;99.90;;;;;;5092762;28;20040;-51
2022/04/01 05:31:35;;;;;;;8.02;2.20;;;1.70;99.90;;;;;;5086134;28;20105;-53
2022/04/01 05:34:16;;;;;;;5.55;2.08;;;1.70;99.90;;;;;;5091308;28;20530;-52
2022/04/01 05:36:43;;;;;;;3.95;2.00;;;1.70;99.90;;;;;;5074391;28;20047;-50
2022/04/01 05:39:11;;;;;;;6.07;2.05;;;1.70;99.90;;;;;;5093325;28;20078;-52
2022/04/01 05:41:37;;;;;;;5.97;2.50;;;1.70;99.90;;;;;;5093463;28;20541;-50
2022/04/01 05:44:05;;;;;;;4.18;1.98;;;1.70;99.90;;;;;;5093431;28;20036;-50
2022/04/01 05:46:33;;;;;;;3.90;1.65;;;1.60;99.90;;;;;;5075097;28;20082;-50
2022/04/01 05:49:00;;;;;;;3.80;1.70;;;1.70;99.90;;;;;;5091380;28;20040;-55
2022/04/01 05:51:29;;;;;;;4.68;1.90;;;1.80;99.90;;;;;;5082421;28;20064;-50
2022/04/01 05:53:56;;;;;;;5.70;2.20;;;1.80;99.90;;;;;;5084299;28;20434;-54
2022/04/01 05:56:22;;;;;;;6.85;2.00;;;1.70;99.90;;;;;;5078304;28;20062;-50
2022/04/01 05:58:48;;;;;;;3.78;1.73;;;1.80;99.90;;;;;;5093020;28;20488;-53
2022/04/01 06:01:48;;;;;;;6.22;1.80;;;1.90;99.90;;;;;;5074977;28;20438;-50
2022/04/01 06:04:28;;;;;;;6.55;1.70;;;1.90;99.90;;;;;;5092976;28;20075;-52
2022/04/01 06:07:26;;;;;;;3.80;1.58;;;1.80;99.90;;;;;;5092725;28;20119;-50
2022/04/01 06:10:11;;;;;;;4.32;1.77;;;1.90;99.90;;;;;;5092640;28;20395;-52
2022/04/01 06:12:51;;;;;;;3.22;1.40;;;2.00;99.90;;;;;;5092958;28;20052;-53
2022/04/01 06:15:25;;;;;;;7.28;1.25;;;2.00;99.90;;;;;;5078376;28;20032;-54
2022/04/01 06:18:06;;;;;;;4.85;1.63;;;2.10;99.90;;;;;;5083806;28;20076;-57
2022/04/01 06:20:36;;;;;;;3.10;1.38;;;2.20;99.90;;;;;;5086610;28;20034;-54
2022/04/01 06:23:29;;;;;;;4.43;1.48;;;2.20;99.90;;;;;;5092499;28;20048;-53
2022/04/01 06:25:58;;;;;;;5.18;1.20;;;2.20;99.90;;;;;;5092196;28;20594;-51
2022/04/01 06:28:30;;;;;;;4.00;1.58;;;2.20;99.90;;;;;;5070697;28;20412;-52
2022/04/01 06:31:06;;;;;;;8.35;1.60;;;2.20;99.90;;;;;;5091940;28;20055;-57
2022/04/01 06:33:39;;;;;;;2.97;1.30;;;2.30;99.90;;;;;;5088518;28;20165;-57
2022/04/01 06:36:06;;;;;;;7.35;1.30;;;2.30;99.90;;;;;;5087920;28;20597;-54
2022/04/01 06:38:41;;;;;;;4.47;1.58;;;2.40;99.90;;;;;;5067218;28;20049;-54
2022/04/01 06:41:09;;;;;;;4.40;1.25;;;2.40;99.90;;;;;;5090832;28;20506;-54
2022/04/01 06:43:35;;;;;;;2.47;1.20;;;2.50;99.90;;;;;;5092181;28;20032;-53
2022/04/01 06:46:02;;;;;;;3.90;1.45;;;2.50;99.90;;;;;;5092024;28;20403;-52
2022/04/01 06:48:28;;;;;;;3.55;1.30;;;2.40;99.90;;;;;;5091918;28;20071;-52
2022/04/01 06:50:56;;;;;;;4.03;1.33;;;2.50;99.90;;;;;;5088577;28;20106;-54
2022/04/01 06:53:21;;;;;;;5.35;1.40;;;2.60;99.90;;;;;;5091776;28;20036;-53
2022/04/01 06:55:48;;;;;;;2.22;1.08;;;2.60;99.90;;;;;;5086710;28;20479;-55
2022/04/01 06:58:14;;;;;;;4.53;1.27;;;2.60;99.90;;;;;;5090667;28;20079;-51
2022/04/01 07:00:42;;;;;;;4.78;1.83;;;2.70;99.90;;;;;;5092031;28;20039;-53
2022/04/01 07:03:10;;;;;;;4.57;1.50;;;2.70;99.90;;;;;;5079401;28;20040;-51
2022/04/01 07:05:36;;;;;;;4.35;1.55;;;2.70;99.90;;;;;;5088684;28;20047;-50
2022/04/01 07:08:05;;;;;;;4.57;1.20;;;2.70;99.90;;;;;;5088908;28;20110;-54
2022/04/01 07:10:31;;;;;;;4.55;1.30;;;2.70;99.90;;;;;;5084869;28;20078;-54
2022/04/01 07:12:57;;;;;;;5.07;1.60;;;2.70;99.90;;;;;;5086731;28;20078;-53
2022/04/01 07:15:23;;;;;;;3.70;1.70;;;2.70;99.90;;;;;;5077674;28;20040;-53
2022/04/01 07:17:48;;;;;;;4.78;1.25;;;2.80;99.90;;;;;;5066482;28;20283;-55
2022/04/01 07:20:15;;;;;;;2.75;1.60;;;2.70;99.90;;;;;;5081622;28;20127;-56
2022/04/01 07:22:41;;;;;;;3.67;1.42;;;2.80;99.90;;;;;;5081165;28;20540;-56
2022/04/01 07:25:08;;;;;;;6.93;1.50;;;2.80;99.90;;;;;;5086068;28;20066;-57
2022/04/01 07:27:34;;;;;;;2.65;1.40;;;2.80;99.90;;;;;;5081846;28;20036;-58
2022/04/01 07:30:00;;;;;;;2.40;1.30;;;2.90;99.90;;;;;;5084844;28;20077;-56
2022/04/01 07:32:33;;;;;;;2.78;1.45;;;2.90;99.90;;;;;;5083683;28;20045;-57
2022/04/01 07:35:10;;;;;;;4.53;1.58;;;2.90;99.90;;;;;;5087963;28;20071;-56
2022/04/01 07:37:35;;;;;;;5.05;1.45;;;2.90;99.90;;;;;;5067585;28;20032;-57
2022/04/01 07:40:02;;;;;;;9.00;1.90;;;2.90;99.90;;;;;;5091389;28;20259;-56
2022/04/01 07:42:30;;;;;;;4.13;1.40;;;2.90;99.90;;;;;;5085792;28;20072;-57
2022/04/01 07:44:55;;;;;;;3.28;1.70;;;3.00;99.90;;;;;;5083076;28;20047;-56
2022/04/01 07:47:22;;;;;;;3.20;1.48;;;3.10;99.90;;;;;;5087737;28;20039;-56
2022/04/01 07:49:49;;;;;;;2.63;1.60;;;3.10;99.90;;;;;;5085247;28;20141;-57
2022/04/01 07:52:16;;;;;;;5.65;1.80;;;3.10;99.90;;;;;;5092614;28;20488;-55
2022/04/01 07:54:43;;;;;;;4.32;1.67;;;3.10;99.90;;;;;;5090387;28;20047;-56
2022/04/01 07:57:10;;;;;;;5.50;1.80;;;3.10;99.90;;;;;;5093435;28;20166;-56
2022/04/01 07:59:36;;;;;;;4.00;1.52;;;3.10;99.90;;;;;;5091946;28;20090;-56
2022/04/01 08:02:03;;;;;;;3.05;1.50;;;3.30;99.90;;;;;;5089546;28;20032;-54
2022/04/01 08:04:28;;;;;;;5.60;1.63;;;3.20;99.90;;;;;;5092018;28;20442;-54
2022/04/01 08:06:55;;;;;;;4.13;1.45;;;3.20;99.90;;;;;;5090877;28;20093;-55
2022/04/01 08:09:21;;;;;;;4.10;1.75;;;3.20;99.90;;;;;;5085051;28;20043;-54
2022/04/01 08:11:47;;;;;;;3.30;1.80;;;3.10;99.90;;;;;;5084185;28;20101;-55
2022/04/01 08:14:12;;;;;;;3.70;1.52;;;3.20;99.90;;;;;;5082687;28;20115;-55
2022/04/01 08:16:38;;;;;;;4.40;1.88;;;3.20;99.90;;;;;;5082431;28;20120;-56
2022/04/01 08:19:05;;;;;;;5.00;1.75;;;3.10;99.90;;;;;;5079573;28;20393;-56
2022/04/01 08:21:31;;;;;;;6.13;2.65;;;3.20;99.90;;;;;;5084608;28;20047;-56
2022/04/01 08:23:57;;;;;;;5.53;1.77;;;3.10;99.90;;;;;;5079436;28;20124;-53
2022/04/01 08:26:23;;;;;;;4.03;2.03;;;3.20;99.90;;;;;;5087232;28;20212;-56
2022/04/01 08:28:50;;;;;;;6.03;2.15;;;3.10;99.90;;;;;;5084713;28;20044;-56
2022/04/01 08:31:15;;;;;;;5.47;2.20;;;3.10;99.90;;;;;;5085967;28;20038;-56
2022/04/01 08:33:41;;;;;;;3.53;2.15;;;3.20;99.90;;;;;;5087444;28;20043;-53
2022/04/01 08:36:06;;;;;;;4.80;2.35;;;3.10;99.90;;;;;;5083007;28;20130;-53
2022/04/01 08:38:32;;;;;;;4.35;2.08;;;3.10;99.90;;;;;;5082183;28;20033;-56
2022/04/01 08:40:58;;;;;;;5.95;2.70;;;3.20;99.90;;;;;;5086605;28;20186;-55
2022/04/01 08:43:26;;;;;;;5.30;2.50;;;3.20;99.90;;;;;;5081075;28;20043;-56
2022/04/01 08:45:53;;;;;;;8.88;3.40;;;3.20;99.90;;;;;;5086143;28;20073;-55
2022/04/01 08:48:18;;;;;;;5.22;2.53;;;3.20;99.90;;;;;;5080226;28;20040;-54
2022/04/01 08:50:44;;;;;;;6.05;2.88;;;3.20;99.90;;;;;;5078326;28;20036;-52
2022/04/01 08:53:10;;;;;;;4.38;2.70;;;3.30;99.90;;;;;;5078449;28;20039;-54
2022/04/01 08:55:36;;;;;;;5.22;2.70;;;3.30;99.90;;;;;;5082905;28;20079;-52
2022/04/01 08:58:01;;;;;;;6.38;2.72;;;3.40;99.90;;;;;;5066246;28;20178;-54
2022/04/01 09:00:30;;;;;;;8.07;2.92;;;3.50;99.90;;;;;;5078353;28;20048;-53
2022/04/01 09:03:06;;;;;;;7.28;3.28;;;3.40;99.90;;;;;;5081755;28;20040;-55
2022/04/01 09:05:32;;;;;;;6.97;3.35;;;3.30;99.90;;;;;;5062456;28;20044;-53
2022/04/01 09:08:06;;;;;;;4.97;2.80;;;3.50;99.90;;;;;;5083170;28;20518;-55
2022/04/01 09:10:50;;;;;;;5.85;2.78;;;3.50;99.90;;;;;;5087270;28;20101;-52
2022/04/01 09:13:17;;;;;;;6.45;2.88;;;3.50;99.90;;;;;;5093855;28;20036;-55
2022/04/01 09:15:43;;;;;;;8.45;3.35;;;3.40;99.90;;;;;;5093480;28;20040;-56
2022/04/01 09:18:10;;;;;;;7.43;3.50;;;3.40;99.90;;;;;;5093126;28;20036;-57
2022/04/01 09:20:44;;;;;;;8.55;3.95;;;3.40;99.90;;;;;;5093711;28;20491;-56
2022/04/01 09:23:10;;;;;;;10.07;4.43;;;3.30;99.90;;;;;;5093588;28;20080;-57
2022/04/01 09:25:35;;;;;;;9.23;3.83;;;3.40;99.90;;;;;;5091786;28;20152;-56
2022/04/01 09:28:01;;;;;;;6.97;3.22;;;3.50;99.90;;;;;;5093224;28;20507;-57
2022/04/01 09:30:29;;;;;;;8.70;3.75;;;3.50;99.90;;;;;;5093242;28;20035;-55
2022/04/01 09:32:57;;;;;;;9.05;4.50;;;3.40;99.90;;;;;;5092632;28;20118;-55
2022/04/01 09:35:27;;;;;;;8.85;4.18;;;3.40;99.90;;;;;;5093033;28;20040;-58
2022/04/01 09:37:54;;;;;;;7.93;3.83;;;3.40;99.90;;;;;;5092037;28;20040;-55
2022/04/01 09:40:22;;;;;;;9.15;4.30;;;3.60;99.90;;;;;;5072266;28;20032;-58
2022/04/01 09:42:50;;;;;;;7.60;4.28;;;3.50;99.90;;;;;;5081169;28;20045;-58
2022/04/01 09:45:22;;;;;;;8.80;4.82;;;3.40;99.90;;;;;;5073404;28;20126;-58
2022/04/01 09:48:05;;;;;;;7.60;4.70;;;3.40;99.90;;;;;;5076613;28;20066;-59
2022/04/01 09:50:35;;;;;;;;;;;3.30;99.90;;;;;;5086090;28;20123;-58
2022/04/01 09:53:07;;;;;;;10.68;4.57;;;3.30;99.90;;;;;;5089648;28;19923;-58
2022/04/01 09:55:44;;;;;;;8.75;4.78;;;3.20;99.90;;;;;;5088665;28;20085;-56
2022/04/01 09:58:11;;;;;;;9.05;4.75;;;3.20;99.90;;;;;;5070430;28;20067;-56
2022/04/01 10:00:40;;;;;;;11.35;5.35;;;3.20;99.90;;;;;;5090286;28;20193;-58
2022/04/01 10:03:06;;;;;;;8.18;4.90;;;3.20;99.90;;;;;;5070862;28;20607;-56
2022/04/01 10:05:34;;;;;;;6.93;4.07;;;3.30;99.90;;;;;;5089584;28;20044;-57
2022/04/01 10:08:02;;;;;;;9.52;4.05;;;3.30;99.90;;;;;;5088489;28;20040;-59
2022/04/01 10:10:29;;;;;;;10.77;5.97;;;3.40;99.90;;;;;;5084781;28;20040;-57
2022/04/01 10:13:01;;;;;;;13.20;6.07;;;3.40;99.90;;;;;;5053978;28;20123;-57
2022/04/01 10:15:29;;;;;;;7.77;4.30;;;3.30;99.90;;;;;;5072724;28;20166;-58
2022/04/01 10:17:57;;;;;;;9.98;4.70;;;3.30;99.90;;;;;;5080593;28;20036;-57
2022/04/01 10:20:36;;;;;;;10.95;5.57;;;3.40;99.90;;;;;;5088665;28;20040;-56
2022/04/01 10:23:06;;;;;;;9.18;5.00;;;3.50;99.90;;;;;;5087852;28;20386;-57
2022/04/01 10:25:39;;;;;;;12.93;6.00;;;3.50;99.90;;;;;;5087617;28;20040;-55
2022/04/01 10:28:06;;;;;;;6.93;3.88;;;3.50;99.90;;;;;;5079874;28;20040;-55
2022/04/01 10:30:33;;;;;;;9.63;4.72;;;3.70;99.90;;;;;;5080819;28;20035;-57
2022/04/01 10:32:59;;;;;;;11.73;4.78;;;3.90;99.90;;;;;;5087207;28;20430;-56
2022/04/01 10:35:37;;;;;;;8.38;4.50;;;3.80;99.90;;;;;;5089097;28;20043;-56
2022/04/01 10:38:05;;;;;;;8.45;4.30;;;3.90;99.90;;;;;;5080097;28;20032;-56
2022/04/01 10:40:33;;;;;;;7.93;4.65;;;4.00;99.90;;;;;;5088704;28;20435;-56
2022/04/01 10:43:17;;;;;;;10.25;5.45;;;4.10;99.90;;;;;;5081834;28;20040;-56
2022/04/01 10:45:59;;;;;;;12.85;4.45;;;4.00;99.90;;;;;;5087982;28;20048;-52
2022/04/01 10:51:39;;;;;;;11.20;5.38;;;4.10;99.90;;;;;;5085280;28;20112;-57
2022/04/01 10:54:14;;;;;;;9.95;5.47;;;4.00;99.90;;;;;;5074378;28;20082;-55
2022/04/01 10:56:41;;;;;;;9.73;5.32;;;4.10;99.90;;;;;;5074724;28;20471;-57
2022/04/01 10:59:18;;;;;;;8.98;4.57;;;4.10;99.90;;;;;;5082193;28;20433;-58
2022/04/01 11:01:52;;;;;;;10.80;4.72;;;4.10;99.90;;;;;;5083544;28;20028;-57
2022/04/01 11:04:18;;;;;;;8.15;4.72;;;4.10;99.90;;;;;;5082680;28;20481;-57
2022/04/01 11:06:50;;;;;;;12.65;4.90;;;4.00;99.90;;;;;;5087311;28;20040;-58
2022/04/01 11:09:42;;;;;;;7.75;4.40;;;3.90;99.90;;;;;;5086947;28;20588;-58
2022/04/01 11:12:21;;;;;;;10.25;5.00;;;3.80;99.90;;;;;;5084966;28;20036;-57
2022/04/01 11:14:59;;;;;;;8.93;4.10;;;3.70;99.90;;;;;;5084818;28;20345;-56
2022/04/01 11:17:34;;;;;;;8.00;5.00;;;3.70;99.90;;;;;;5087724;28;20388;-57
2022/04/01 11:20:15;;;;;;;11.85;4.90;;;3.70;99.90;;;;;;5086883;28;20495;-57
2022/04/01 11:22:46;;;;;;;8.00;3.67;;;3.70;99.90;;;;;;5082406;28;20355;-58
2022/04/01 11:25:21;;;;;;;5.25;3.47;;;3.60;99.90;;;;;;5068342;28;20491;-57
2022/04/01 11:27:57;;;;;;;5.35;3.17;;;3.50;99.90;;;;;;5084748;28;20071;-57
2022/04/01 11:30:34;;;;;;;7.18;3.35;;;3.50;99.90;;;;;;5087063;28;20080;-57
2022/04/01 11:33:02;;;;;;;6.85;3.30;;;3.50;99.90;;;;;;5085598;28;20119;-57
2022/04/01 11:35:30;;;;;;;5.15;2.70;;;3.50;99.90;;;;;;5086945;28;20491;-56
2022/04/01 11:37:58;;;;;;;5.00;2.80;;;3.50;99.90;;;;;;5086218;28;20048;-56
2022/04/01 11:40:30;;;;;;;4.00;2.72;;;3.60;99.90;;;;;;5069682;28;20048;-56
2022/04/01 11:43:02;;;;;;;7.67;3.40;;;3.60;99.90;;;;;;5085438;28;20039;-57
2022/04/01 11:45:33;;;;;;;6.18;3.05;;;3.60;99.90;;;;;;5069673;28;20059;-55
2022/04/01 11:47:59;;;;;;;6.97;2.47;;;3.50;99.90;;;;;;5074560;28;20442;-56
2022/04/01 11:50:25;;;;;;;7.88;2.65;;;3.50;99.90;;;;;;5073000;28;20036;-58
2022/04/01 11:52:56;;;;;;;5.55;2.50;;;3.50;99.90;;;;;;5078945;28;20388;-56
2022/04/01 11:55:24;;;;;;;6.00;2.42;;;3.70;99.90;;;;;;5074882;28;20083;-56
2022/04/01 11:57:53;;;;;;;5.82;2.47;;;3.60;99.90;;;;;;5080462;28;20041;-57
2022/04/01 12:00:20;;;;;;;5.85;2.70;;;3.60;99.90;;;;;;5077953;28;20036;-56
2022/04/01 12:02:48;;;;;;;6.13;2.30;;;3.80;99.90;;;;;;5075605;28;20454;-56
2022/04/01 12:05:14;;;;;;;4.32;2.25;;;3.80;99.90;;;;;;5071988;28;20067;-56
2022/04/01 12:10:27;;;;;;;4.38;2.75;;;3.80;99.90;;;;;;5077519;28;20126;-56
2022/04/01 12:13:03;;;;;;;4.43;2.20;;;3.70;99.90;;;;;;5075760;28;20163;-57
2022/04/01 12:15:41;;;;;;;5.93;2.60;;;3.80;99.90;;;;;;5074628;28;20040;-57
2022/04/01 12:18:10;;;;;;;16.27;9.10;;;3.80;99.90;;;;;;5075547;28;20044;-57
2022/04/01 12:20:42;;;;;;;4.75;2.08;;;3.70;99.90;;;;;;5077054;28;20119;-56
2022/04/01 12:23:09;;;;;;;3.05;2.17;;;4.10;99.90;;;;;;5075887;28;20033;-55
2022/04/01 12:25:37;;;;;;;4.82;1.92;;;4.20;99.90;;;;;;5080059;28;21383;-56
2022/04/01 12:28:12;;;;;;;3.78;1.70;;;4.20;99.90;;;;;;5086379;28;20047;-56
2022/04/01 12:30:41;;;;;;;4.75;2.08;;;4.30;99.90;;;;;;5087403;28;20415;-56
2022/04/01 12:33:19;;;;;;;3.72;1.85;;;4.30;99.90;;;;;;5087477;28;20040;-57
2022/04/01 12:36:04;;;;;;;4.07;1.95;;;4.40;99.90;;;;;;5089970;28;20413;-56
2022/04/01 12:38:35;;;;;;;6.72;2.47;;;4.40;99.90;;;;;;5089719;28;20032;-56
2022/04/01 12:41:03;;;;;;;8.23;2.70;;;4.50;99.90;;;;;;5086570;28;20063;-56
2022/04/01 12:43:31;;;;;;;6.38;2.80;;;4.40;99.90;;;;;;5089620;28;20051;-56
2022/04/01 12:46:31;;;;;;;5.50;2.15;;;4.50;99.90;;;;;;5069511;28;20548;-56
2022/04/01 12:49:11;;;;;;;4.55;1.60;;;4.50;99.90;;;;;;5089855;28;20040;-56
2022/04/01 12:51:38;;;;;;;5.63;2.15;;;4.50;99.90;;;;;;5071755;28;20048;-57
2022/04/01 12:54:08;;;;;;;4.25;1.80;;;4.60;99.90;;;;;;5089610;28;20083;-55
2022/04/01 12:56:42;;;;;;;3.25;1.70;;;4.60;99.90;;;;;;5086538;28;20089;-58
2022/04/01 12:59:16;;;;;;;6.30;2.70;;;4.50;99.90;;;;;;5089583;28;20484;-57
2022/04/01 13:01:44;;;;;;;2.15;1.40;;;4.60;99.90;;;;;;5087584;28;20085;-58
2022/04/01 13:04:17;;;;;;;2.78;1.70;;;4.60;99.90;;;;;;5081946;28;20513;-64
2022/04/01 13:07:02;;;;;;;5.88;1.83;;;4.60;99.90;;;;;;5090980;28;20036;-55
2022/04/01 13:09:28;;;;;;;5.35;1.83;;;4.50;99.90;;;;;;5083820;28;20068;-57
2022/04/01 13:11:58;;;;;;;4.15;1.75;;;4.60;99.90;;;;;;5077452;28;20090;-54
2022/04/01 13:14:25;;;;;;;2.30;1.40;;;4.60;99.90;;;;;;5084060;28;20086;-55
2022/04/01 13:16:54;;;;;;;5.45;1.95;;;4.60;99.90;;;;;;5093099;28;20036;-55
2022/04/01 13:19:19;;;;;;;4.40;2.20;;;4.50;99.90;;;;;;5099864;22;20036;-56
2022/04/01 13:21:45;;;;;;;4.50;1.88;;;4.40;99.90;;;;;;5009605;28;20562;-57